Huffman, Indiana
Current Conditions -  °F | °C
As of 12:55 PM on Friday 24 Oct 2014 (Local Time) from KHNB Reporting Station
Clear Clear  
Wind Chill: 63°   Ceiling: Unl
Heat Index: 63°   Visibility: 10mi
Dew Point: 46°   Wind: 6mph
Humidity: 55%   Direction: 280°W
Pressure: 30.09"   Gusts: NA
Location:  38.0072°N, 86.7931°W
Report Text: KHNB 241755Z AUTO 28005KT 10SM CLR 17/08 A3009 RMK AO1 10170 20060 57020
Loading
Personal Weather Stations






























Interactive Weather Map
Tropical Storm Tracking
New forecast layout! Learn more

10-Day Weather Forecast

Advertisements
Track Severe Weather on mobile